sensor_id;sensor_type;location;lat;lon;timestamp;temperature;humidity
1686;DHT22;840;47.980;7.830;2023-02-28T00:01:14;2.00;92.10
1686;DHT22;840;47.980;7.830;2023-02-28T00:03:41;2.00;92.10
1686;DHT22;840;47.980;7.830;2023-02-28T00:06:08;2.00;92.10
1686;DHT22;840;47.980;7.830;2023-02-28T00:08:36;2.10;92.10
1686;DHT22;840;47.980;7.830;2023-02-28T00:11:04;2.00;92.10
1686;DHT22;840;47.980;7.830;2023-02-28T00:13:32;2.00;92.30
1686;DHT22;840;47.980;7.830;2023-02-28T00:16:05;2.10;92.30
1686;DHT22;840;47.980;7.830;2023-02-28T00:18:32;2.00;92.20
1686;DHT22;840;47.980;7.830;2023-02-28T00:20:59;2.10;92.10
1686;DHT22;840;47.980;7.830;2023-02-28T00:23:27;2.10;92.20
1686;DHT22;840;47.980;7.830;2023-02-28T00:25:54;2.10;92.30
1686;DHT22;840;47.980;7.830;2023-02-28T00:28:24;2.10;92.30
1686;DHT22;840;47.980;7.830;2023-02-28T00:30:52;2.10;92.30
1686;DHT22;840;47.980;7.830;2023-02-28T00:33:21;2.10;92.40
1686;DHT22;840;47.980;7.830;2023-02-28T00:35:48;2.00;92.50
1686;DHT22;840;47.980;7.830;2023-02-28T00:38:15;2.00;92.60
1686;DHT22;840;47.980;7.830;2023-02-28T00:40:42;2.00;92.50
1686;DHT22;840;47.980;7.830;2023-02-28T00:43:09;2.00;92.70
1686;DHT22;840;47.980;7.830;2023-02-28T00:45:36;2.00;92.70
1686;DHT22;840;47.980;7.830;2023-02-28T00:48:03;2.00;92.80
1686;DHT22;840;47.980;7.830;2023-02-28T00:50:33;2.00;92.80
1686;DHT22;840;47.980;7.830;2023-02-28T00:53:00;2.00;92.70
1686;DHT22;840;47.980;7.830;2023-02-28T00:55:27;2.00;92.90
1686;DHT22;840;47.980;7.830;2023-02-28T00:57:54;2.00;93.10
1686;DHT22;840;47.980;7.830;2023-02-28T01:00:21;2.10;93.10
1686;DHT22;840;47.980;7.830;2023-02-28T01:02:48;2.10;93.20
1686;DHT22;840;47.980;7.830;2023-02-28T01:05:15;2.10;93.10
1686;DHT22;840;47.980;7.830;2023-02-28T01:07:43;2.10;93.10
1686;DHT22;840;47.980;7.830;2023-02-28T01:10:10;2.00;93.30
1686;DHT22;840;47.980;7.830;2023-02-28T01:12:37;2.00;93.60
1686;DHT22;840;47.980;7.830;2023-02-28T01:15:06;1.90;93.50
1686;DHT22;840;47.980;7.830;2023-02-28T01:17:33;1.90;93.70
1686;DHT22;840;47.980;7.830;2023-02-28T01:20:00;1.90;94.20
1686;DHT22;840;47.980;7.830;2023-02-28T01:22:27;1.90;93.70
1686;DHT22;840;47.980;7.830;2023-02-28T01:24:55;1.90;93.90
1686;DHT22;840;47.980;7.830;2023-02-28T01:27:22;1.90;94.10
1686;DHT22;840;47.980;7.830;2023-02-28T01:29:51;1.80;94.00
1686;DHT22;840;47.980;7.830;2023-02-28T01:32:18;1.80;94.20
1686;DHT22;840;47.980;7.830;2023-02-28T01:34:45;1.90;94.20
1686;DHT22;840;47.980;7.830;2023-02-28T01:37:12;1.90;94.40
1686;DHT22;840;47.980;7.830;2023-02-28T01:39:39;1.90;94.40
1686;DHT22;840;47.980;7.830;2023-02-28T01:42:08;1.90;94.40
1686;DHT22;840;47.980;7.830;2023-02-28T01:45:01;1.90;94.60
1686;DHT22;840;47.980;7.830;2023-02-28T01:47:32;2.00;94.60
1686;DHT22;840;47.980;7.830;2023-02-28T01:50:03;2.00;94.50
1686;DHT22;840;47.980;7.830;2023-02-28T01:52:32;2.00;94.60
1686;DHT22;840;47.980;7.830;2023-02-28T01:55:01;2.00;94.80
1686;DHT22;840;47.980;7.830;2023-02-28T01:57:35;1.90;94.60
1686;DHT22;840;47.980;7.830;2023-02-28T02:00:06;1.90;94.90
1686;DHT22;840;47.980;7.830;2023-02-28T02:02:35;2.00;95.00
1686;DHT22;840;47.980;7.830;2023-02-28T02:05:05;1.90;94.70
1686;DHT22;840;47.980;7.830;2023-02-28T02:07:36;1.90;94.90
1686;DHT22;840;47.980;7.830;2023-02-28T02:10:13;2.00;95.00
1686;DHT22;840;47.980;7.830;2023-02-28T02:15:42;2.00;94.90
1686;DHT22;840;47.980;7.830;2023-02-28T02:18:18;1.80;95.10
1686;DHT22;840;47.980;7.830;2023-02-28T02:21:09;1.80;95.30
1686;DHT22;840;47.980;7.830;2023-02-28T02:26:55;1.80;95.50
1686;DHT22;840;47.980;7.830;2023-02-28T02:29:47;1.80;95.50
1686;DHT22;840;47.980;7.830;2023-02-28T02:32:33;1.80;95.60
1686;DHT22;840;47.980;7.830;2023-02-28T02:35:12;1.80;95.80
1686;DHT22;840;47.980;7.830;2023-02-28T02:37:43;1.80;95.80
1686;DHT22;840;47.980;7.830;2023-02-28T02:40:13;1.80;96.20
1686;DHT22;840;47.980;7.830;2023-02-28T02:42:46;1.80;95.90
1686;DHT22;840;47.980;7.830;2023-02-28T02:45:19;1.80;96.00
1686;DHT22;840;47.980;7.830;2023-02-28T02:47:49;1.80;96.30
1686;DHT22;840;47.980;7.830;2023-02-28T02:50:22;1.80;96.40
1686;DHT22;840;47.980;7.830;2023-02-28T02:52:56;1.80;96.30
1686;DHT22;840;47.980;7.830;2023-02-28T02:55:25;1.70;96.20
1686;DHT22;840;47.980;7.830;2023-02-28T02:57:54;1.70;96.50
1686;DHT22;840;47.980;7.830;2023-02-28T03:00:26;1.70;96.50
1686;DHT22;840;47.980;7.830;2023-02-28T03:02:55;1.80;97.00
1686;DHT22;840;47.980;7.830;2023-02-28T03:05:32;1.80;96.70
1686;DHT22;840;47.980;7.830;2023-02-28T03:08:03;1.80;97.00
1686;DHT22;840;47.980;7.830;2023-02-28T03:10:37;1.90;96.80
1686;DHT22;840;47.980;7.830;2023-02-28T03:16:32;1.80;97.00
1686;DHT22;840;47.980;7.830;2023-02-28T03:21:53;1.70;97.20
1686;DHT22;840;47.980;7.830;2023-02-28T03:24:27;1.70;97.40
1686;DHT22;840;47.980;7.830;2023-02-28T03:27:03;1.70;97.50
1686;DHT22;840;47.980;7.830;2023-02-28T03:29:34;1.70;97.40
1686;DHT22;840;47.980;7.830;2023-02-28T03:32:05;1.70;97.50
1686;DHT22;840;47.980;7.830;2023-02-28T03:34:43;1.70;97.70
1686;DHT22;840;47.980;7.830;2023-02-28T03:37:17;1.70;97.70
1686;DHT22;840;47.980;7.830;2023-02-28T03:39:49;1.70;97.70
1686;DHT22;840;47.980;7.830;2023-02-28T03:42:21;1.60;97.80
1686;DHT22;840;47.980;7.830;2023-02-28T03:44:52;1.60;97.80
1686;DHT22;840;47.980;7.830;2023-02-28T03:47:24;1.60;97.90
1686;DHT22;840;47.980;7.830;2023-02-28T03:49:54;1.60;98.00
1686;DHT22;840;47.980;7.830;2023-02-28T03:52:30;1.70;98.10
1686;DHT22;840;47.980;7.830;2023-02-28T03:55:02;1.70;98.00
1686;DHT22;840;47.980;7.830;2023-02-28T03:57:34;1.70;98.10
1686;DHT22;840;47.980;7.830;2023-02-28T04:00:06;1.80;98.20
1686;DHT22;840;47.980;7.830;2023-02-28T04:02:35;1.80;98.50
1686;DHT22;840;47.980;7.830;2023-02-28T04:05:02;1.80;99.40
1686;DHT22;840;47.980;7.830;2023-02-28T04:07:31;1.80;98.80
1686;DHT22;840;47.980;7.830;2023-02-28T04:10:13;1.80;98.40
1686;DHT22;840;47.980;7.830;2023-02-28T04:12:40;1.90;98.30
1686;DHT22;840;47.980;7.830;2023-02-28T04:15:08;1.80;98.50
1686;DHT22;840;47.980;7.830;2023-02-28T04:17:35;1.80;98.70
1686;DHT22;840;47.980;7.830;2023-02-28T04:20:03;1.80;98.70
1686;DHT22;840;47.980;7.830;2023-02-28T04:22:36;1.80;99.10
1686;DHT22;840;47.980;7.830;2023-02-28T04:25:04;1.80;99.30
1686;DHT22;840;47.980;7.830;2023-02-28T04:27:32;1.90;99.20
1686;DHT22;840;47.980;7.830;2023-02-28T04:29:58;1.90;99.40
1686;DHT22;840;47.980;7.830;2023-02-28T04:32:25;1.90;99.40
1686;DHT22;840;47.980;7.830;2023-02-28T04:34:52;1.90;99.60
1686;DHT22;840;47.980;7.830;2023-02-28T04:37:20;1.90;99.90
1686;DHT22;840;47.980;7.830;2023-02-28T04:39:54;1.80;99.90
1686;DHT22;840;47.980;7.830;2023-02-28T04:42:21;1.70;99.90
1686;DHT22;840;47.980;7.830;2023-02-28T04:44:48;1.60;99.90
1686;DHT22;840;47.980;7.830;2023-02-28T04:47:15;1.40;99.90
1686;DHT22;840;47.980;7.830;2023-02-28T04:49:41;1.30;99.90
1686;DHT22;840;47.980;7.830;2023-02-28T04:52:09;1.30;99.90
1686;DHT22;840;47.980;7.830;2023-02-28T04:54:36;1.40;99.90
1686;DHT22;840;47.980;7.830;2023-02-28T04:57:05;1.40;99.90
1686;DHT22;840;47.980;7.830;2023-02-28T04:59:32;1.40;99.90
1686;DHT22;840;47.980;7.830;2023-02-28T05:02:00;1.40;99.90
1686;DHT22;840;47.980;7.830;2023-02-28T05:04:32;1.30;99.90
1686;DHT22;840;47.980;7.830;2023-02-28T05:06:59;1.20;99.90
1686;DHT22;840;47.980;7.830;2023-02-28T05:09:26;1.20;99.90
1686;DHT22;840;47.980;7.830;2023-02-28T05:11:53;1.20;99.90
1686;DHT22;840;47.980;7.830;2023-02-28T05:14:21;1.20;99.90
1686;DHT22;840;47.980;7.830;2023-02-28T05:16:48;1.10;99.90
1686;DHT22;840;47.980;7.830;2023-02-28T05:19:15;1.10;99.90
1686;DHT22;840;47.980;7.830;2023-02-28T05:21:49;1.10;99.90
1686;DHT22;840;47.980;7.830;2023-02-28T05:24:17;1.10;99.90
1686;DHT22;840;47.980;7.830;2023-02-28T05:26:49;1.10;99.90
1686;DHT22;840;47.980;7.830;2023-02-28T05:29:18;1.10;99.90
1686;DHT22;840;47.980;7.830;2023-02-28T05:31:46;1.00;99.90
1686;DHT22;840;47.980;7.830;2023-02-28T05:34:14;1.00;99.90
1686;DHT22;840;47.980;7.830;2023-02-28T05:36:41;1.00;99.90
1686;DHT22;840;47.980;7.830;2023-02-28T05:39:09;0.90;99.90
1686;DHT22;840;47.980;7.830;2023-02-28T05:41:39;0.90;99.90
1686;DHT22;840;47.980;7.830;2023-02-28T05:44:06;0.80;99.90
1686;DHT22;840;47.980;7.830;2023-02-28T05:46:33;0.70;99.90
1686;DHT22;840;47.980;7.830;2023-02-28T05:49:01;0.70;99.90
1686;DHT22;840;47.980;7.830;2023-02-28T05:51:28;0.60;99.90
1686;DHT22;840;47.980;7.830;2023-02-28T05:53:58;0.50;99.90
1686;DHT22;840;47.980;7.830;2023-02-28T05:56:25;0.50;99.90
1686;DHT22;840;47.980;7.830;2023-02-28T05:58:52;0.50;99.90
1686;DHT22;840;47.980;7.830;2023-02-28T06:01:25;0.50;99.90
1686;DHT22;840;47.980;7.830;2023-02-28T06:03:58;0.50;99.90
1686;DHT22;840;47.980;7.830;2023-02-28T06:06:26;0.40;99.90
1686;DHT22;840;47.980;7.830;2023-02-28T06:08:53;0.30;99.90
1686;DHT22;840;47.980;7.830;2023-02-28T06:11:20;0.30;99.90
1686;DHT22;840;47.980;7.830;2023-02-28T06:13:53;0.20;99.90
1686;DHT22;840;47.980;7.830;2023-02-28T06:16:20;0.20;99.90
1686;DHT22;840;47.980;7.830;2023-02-28T06:18:47;0.10;99.90
1686;DHT22;840;47.980;7.830;2023-02-28T06:21:14;0.10;99.90
1686;DHT22;840;47.980;7.830;2023-02-28T06:23:42;0.10;99.90
1686;DHT22;840;47.980;7.830;2023-02-28T06:26:09;0.10;99.90
1686;DHT22;840;47.980;7.830;2023-02-28T06:28:36;0.20;99.90
1686;DHT22;840;47.980;7.830;2023-02-28T06:31:06;0.10;99.90
1686;DHT22;840;47.980;7.830;2023-02-28T06:33:35;0.10;99.90
1686;DHT22;840;47.980;7.830;2023-02-28T06:36:02;0.20;99.90
1686;DHT22;840;47.980;7.830;2023-02-28T06:38:29;0.20;99.90
1686;DHT22;840;47.980;7.830;2023-02-28T06:40:59;0.20;99.90
1686;DHT22;840;47.980;7.830;2023-02-28T06:43:28;0.20;99.90
1686;DHT22;840;47.980;7.830;2023-02-28T06:45:56;0.30;99.90
1686;DHT22;840;47.980;7.830;2023-02-28T06:48:23;0.30;99.90
1686;DHT22;840;47.980;7.830;2023-02-28T06:50:50;0.30;99.90
1686;DHT22;840;47.980;7.830;2023-02-28T06:53:17;0.30;99.90
1686;DHT22;840;47.980;7.830;2023-02-28T06:55:45;0.40;99.90
1686;DHT22;840;47.980;7.830;2023-02-28T06:58:16;0.40;99.90
1686;DHT22;840;47.980;7.830;2023-02-28T07:00:45;0.30;99.90
1686;DHT22;840;47.980;7.830;2023-02-28T07:03:12;0.30;99.90
1686;DHT22;840;47.980;7.830;2023-02-28T07:05:40;0.30;99.90
1686;DHT22;840;47.980;7.830;2023-02-28T07:08:07;0.30;99.90
1686;DHT22;840;47.980;7.830;2023-02-28T07:10:36;0.20;99.90
1686;DHT22;840;47.980;7.830;2023-02-28T07:13:07;0.30;99.90
1686;DHT22;840;47.980;7.830;2023-02-28T07:15:36;0.30;99.90
1686;DHT22;840;47.980;7.830;2023-02-28T07:18:03;0.30;99.90
1686;DHT22;840;47.980;7.830;2023-02-28T07:20:30;0.30;99.90
1686;DHT22;840;47.980;7.830;2023-02-28T07:22:58;0.40;99.90
1686;DHT22;840;47.980;7.830;2023-02-28T07:25:27;0.50;99.90
1686;DHT22;840;47.980;7.830;2023-02-28T07:27:55;0.50;99.90
1686;DHT22;840;47.980;7.830;2023-02-28T07:30:24;0.40;99.90
1686;DHT22;840;47.980;7.830;2023-02-28T07:32:52;0.40;99.90
1686;DHT22;840;47.980;7.830;2023-02-28T07:35:20;0.40;99.90
1686;DHT22;840;47.980;7.830;2023-02-28T07:37:47;0.50;99.90
1686;DHT22;840;47.980;7.830;2023-02-28T07:40:14;0.50;99.90
1686;DHT22;840;47.980;7.830;2023-02-28T07:42:41;0.60;99.90
1686;DHT22;840;47.980;7.830;2023-02-28T07:45:10;0.70;99.90
1686;DHT22;840;47.980;7.830;2023-02-28T07:47:37;0.70;99.90
1686;DHT22;840;47.980;7.830;2023-02-28T07:50:08;0.70;99.90
1686;DHT22;840;47.980;7.830;2023-02-28T07:52:36;0.70;99.90
1686;DHT22;840;47.980;7.830;2023-02-28T07:55:04;0.80;99.90
1686;DHT22;840;47.980;7.830;2023-02-28T07:57:32;0.90;99.90
1686;DHT22;840;47.980;7.830;2023-02-28T07:59:58;0.90;99.90
1686;DHT22;840;47.980;7.830;2023-02-28T08:02:25;0.90;99.90
1686;DHT22;840;47.980;7.830;2023-02-28T08:04:52;1.00;99.90
1686;DHT22;840;47.980;7.830;2023-02-28T08:07:20;1.10;99.90
1686;DHT22;840;47.980;7.830;2023-02-28T08:09:47;1.20;99.90
1686;DHT22;840;47.980;7.830;2023-02-28T08:12:15;1.20;99.90
1686;DHT22;840;47.980;7.830;2023-02-28T08:14:42;1.20;99.90
1686;DHT22;840;47.980;7.830;2023-02-28T08:17:10;1.30;99.90
1686;DHT22;840;47.980;7.830;2023-02-28T08:19:37;1.40;99.90
1686;DHT22;840;47.980;7.830;2023-02-28T08:22:04;1.60;99.90
1686;DHT22;840;47.980;7.830;2023-02-28T08:24:33;1.50;99.90
1686;DHT22;840;47.980;7.830;2023-02-28T08:27:00;1.40;99.90
1686;DHT22;840;47.980;7.830;2023-02-28T08:29:26;1.50;99.90
1686;DHT22;840;47.980;7.830;2023-02-28T08:31:54;1.50;99.90
1686;DHT22;840;47.980;7.830;2023-02-28T08:34:22;1.60;99.90
1686;DHT22;840;47.980;7.830;2023-02-28T08:36:49;1.60;99.90
1686;DHT22;840;47.980;7.830;2023-02-28T08:39:16;1.60;99.90
1686;DHT22;840;47.980;7.830;2023-02-28T08:41:44;1.70;99.90
1686;DHT22;840;47.980;7.830;2023-02-28T08:44:11;1.70;99.90
1686;DHT22;840;47.980;7.830;2023-02-28T08:46:38;1.60;99.90
1686;DHT22;840;47.980;7.830;2023-02-28T08:49:05;1.60;99.90
1686;DHT22;840;47.980;7.830;2023-02-28T08:51:33;1.60;99.90
1686;DHT22;840;47.980;7.830;2023-02-28T08:54:00;1.70;99.90
1686;DHT22;840;47.980;7.830;2023-02-28T08:56:28;1.80;99.90
1686;DHT22;840;47.980;7.830;2023-02-28T08:58:57;1.90;99.90
1686;DHT22;840;47.980;7.830;2023-02-28T09:01:25;2.00;99.90
1686;DHT22;840;47.980;7.830;2023-02-28T09:03:54;2.10;99.90
1686;DHT22;840;47.980;7.830;2023-02-28T09:06:24;2.30;99.90
1686;DHT22;840;47.980;7.830;2023-02-28T09:08:51;2.40;99.90
1686;DHT22;840;47.980;7.830;2023-02-28T09:11:19;2.50;99.90
1686;DHT22;840;47.980;7.830;2023-02-28T09:13:46;2.60;99.90
1686;DHT22;840;47.980;7.830;2023-02-28T09:16:15;2.80;99.90
1686;DHT22;840;47.980;7.830;2023-02-28T09:18:43;2.90;99.90
1686;DHT22;840;47.980;7.830;2023-02-28T09:21:11;3.00;99.90
1686;DHT22;840;47.980;7.830;2023-02-28T09:23:39;3.20;99.90
1686;DHT22;840;47.980;7.830;2023-02-28T09:26:07;3.20;99.90
1686;DHT22;840;47.980;7.830;2023-02-28T09:28:34;3.30;99.90
1686;DHT22;840;47.980;7.830;2023-02-28T09:31:01;3.30;99.90
1686;DHT22;840;47.980;7.830;2023-02-28T09:33:31;3.30;99.90
1686;DHT22;840;47.980;7.830;2023-02-28T09:36:00;3.30;99.90
1686;DHT22;840;47.980;7.830;2023-02-28T09:38:29;3.20;99.90
1686;DHT22;840;47.980;7.830;2023-02-28T09:40:58;3.20;99.90
1686;DHT22;840;47.980;7.830;2023-02-28T09:43:30;3.20;99.90
1686;DHT22;840;47.980;7.830;2023-02-28T09:46:02;3.20;99.90
1686;DHT22;840;47.980;7.830;2023-02-28T09:48:37;3.20;99.90
1686;DHT22;840;47.980;7.830;2023-02-28T09:51:15;3.20;99.90
1686;DHT22;840;47.980;7.830;2023-02-28T09:53:50;3.20;99.90
1686;DHT22;840;47.980;7.830;2023-02-28T09:56:21;3.20;99.90
1686;DHT22;840;47.980;7.830;2023-02-28T09:58:54;3.20;99.90
1686;DHT22;840;47.980;7.830;2023-02-28T10:01:27;3.20;99.90
1686;DHT22;840;47.980;7.830;2023-02-28T10:04:00;3.20;99.90
1686;DHT22;840;47.980;7.830;2023-02-28T10:06:33;3.20;99.90
1686;DHT22;840;47.980;7.830;2023-02-28T10:09:04;3.20;99.90
1686;DHT22;840;47.980;7.830;2023-02-28T10:11:36;3.30;99.90
1686;DHT22;840;47.980;7.830;2023-02-28T10:14:07;3.30;99.90
1686;DHT22;840;47.980;7.830;2023-02-28T10:16:40;3.30;99.90
1686;DHT22;840;47.980;7.830;2023-02-28T10:19:16;3.30;99.90
1686;DHT22;840;47.980;7.830;2023-02-28T10:21:49;3.40;99.90
1686;DHT22;840;47.980;7.830;2023-02-28T10:24:22;3.40;99.90
1686;DHT22;840;47.980;7.830;2023-02-28T10:26:52;3.40;99.90
1686;DHT22;840;47.980;7.830;2023-02-28T10:29:23;3.40;99.90
1686;DHT22;840;47.980;7.830;2023-02-28T10:31:50;3.40;99.90
1686;DHT22;840;47.980;7.830;2023-02-28T10:34:19;3.40;99.90
1686;DHT22;840;47.980;7.830;2023-02-28T10:36:46;3.40;99.90
1686;DHT22;840;47.980;7.830;2023-02-28T10:39:34;3.40;99.90
1686;DHT22;840;47.980;7.830;2023-02-28T10:42:20;3.40;99.90
1686;DHT22;840;47.980;7.830;2023-02-28T10:45:05;3.50;99.90
1686;DHT22;840;47.980;7.830;2023-02-28T10:47:34;3.70;99.90
1686;DHT22;840;47.980;7.830;2023-02-28T10:50:05;3.80;99.90
1686;DHT22;840;47.980;7.830;2023-02-28T10:52:37;3.80;99.90
1686;DHT22;840;47.980;7.830;2023-02-28T10:55:19;3.80;99.90
1686;DHT22;840;47.980;7.830;2023-02-28T10:57:48;3.80;99.90
1686;DHT22;840;47.980;7.830;2023-02-28T11:00:17;3.90;99.90
1686;DHT22;840;47.980;7.830;2023-02-28T11:02:44;3.90;99.90
1686;DHT22;840;47.980;7.830;2023-02-28T11:05:31;4.00;99.90
1686;DHT22;840;47.980;7.830;2023-02-28T11:08:04;4.10;99.90
1686;DHT22;840;47.980;7.830;2023-02-28T11:10:33;4.00;99.90
1686;DHT22;840;47.980;7.830;2023-02-28T11:13:01;4.00;99.90
1686;DHT22;840;47.980;7.830;2023-02-28T11:15:30;4.10;99.90
1686;DHT22;840;47.980;7.830;2023-02-28T11:18:01;4.10;99.90
1686;DHT22;840;47.980;7.830;2023-02-28T11:20:31;4.20;99.90
1686;DHT22;840;47.980;7.830;2023-02-28T11:23:02;4.30;99.90
1686;DHT22;840;47.980;7.830;2023-02-28T11:25:31;4.30;99.90
1686;DHT22;840;47.980;7.830;2023-02-28T11:28:00;4.30;99.90
1686;DHT22;840;47.980;7.830;2023-02-28T11:30:36;4.30;99.90
1686;DHT22;840;47.980;7.830;2023-02-28T11:33:20;4.20;99.90
1686;DHT22;840;47.980;7.830;2023-02-28T11:35:50;4.20;99.90
1686;DHT22;840;47.980;7.830;2023-02-28T11:38:17;4.20;99.90
1686;DHT22;840;47.980;7.830;2023-02-28T11:40:51;4.20;99.90
1686;DHT22;840;47.980;7.830;2023-02-28T11:43:34;4.20;99.90
1686;DHT22;840;47.980;7.830;2023-02-28T11:46:12;4.20;99.90
1686;DHT22;840;47.980;7.830;2023-02-28T11:48:47;4.30;99.90
1686;DHT22;840;47.980;7.830;2023-02-28T11:51:22;4.40;99.90
1686;DHT22;840;47.980;7.830;2023-02-28T11:54:09;4.50;99.90
1686;DHT22;840;47.980;7.830;2023-02-28T11:56:42;4.40;99.90
1686;DHT22;840;47.980;7.830;2023-02-28T11:59:28;4.40;99.90
1686;DHT22;840;47.980;7.830;2023-02-28T12:04:53;4.40;99.90
1686;DHT22;840;47.980;7.830;2023-02-28T12:07:29;4.30;99.90
1686;DHT22;840;47.980;7.830;2023-02-28T12:10:04;4.30;99.90
1686;DHT22;840;47.980;7.830;2023-02-28T12:12:43;4.40;99.90
1686;DHT22;840;47.980;7.830;2023-02-28T12:18:04;4.60;99.90
1686;DHT22;840;47.980;7.830;2023-02-28T12:20:36;4.60;99.90
1686;DHT22;840;47.980;7.830;2023-02-28T12:23:23;4.70;99.90
1686;DHT22;840;47.980;7.830;2023-02-28T12:26:06;4.70;99.90
1686;DHT22;840;47.980;7.830;2023-02-28T12:28:39;4.70;99.90
1686;DHT22;840;47.980;7.830;2023-02-28T12:31:11;4.80;99.90
1686;DHT22;840;47.980;7.830;2023-02-28T12:33:43;4.80;99.90
1686;DHT22;840;47.980;7.830;2023-02-28T12:36:14;4.90;99.90
1686;DHT22;840;47.980;7.830;2023-02-28T12:38:48;5.00;99.90
1686;DHT22;840;47.980;7.830;2023-02-28T12:41:19;5.00;99.90
1686;DHT22;840;47.980;7.830;2023-02-28T12:43:55;5.00;99.90
1686;DHT22;840;47.980;7.830;2023-02-28T12:46:29;5.10;99.90
1686;DHT22;840;47.980;7.830;2023-02-28T12:48:58;5.10;99.90
1686;DHT22;840;47.980;7.830;2023-02-28T12:51:26;5.10;99.90
1686;DHT22;840;47.980;7.830;2023-02-28T12:54:07;5.20;99.90
1686;DHT22;840;47.980;7.830;2023-02-28T12:56:43;5.20;99.90
1686;DHT22;840;47.980;7.830;2023-02-28T12:59:17;5.20;99.90
1686;DHT22;840;47.980;7.830;2023-02-28T13:05:06;5.30;99.90
1686;DHT22;840;47.980;7.830;2023-02-28T13:08:03;5.30;99.90
1686;DHT22;840;47.980;7.830;2023-02-28T13:10:42;5.30;99.90
1686;DHT22;840;47.980;7.830;2023-02-28T13:13:15;5.30;99.90
1686;DHT22;840;47.980;7.830;2023-02-28T13:16:01;5.30;99.90
1686;DHT22;840;47.980;7.830;2023-02-28T13:18:37;5.30;99.90
1686;DHT22;840;47.980;7.830;2023-02-28T13:21:06;5.20;99.90
1686;DHT22;840;47.980;7.830;2023-02-28T13:23:40;5.20;99.90
1686;DHT22;840;47.980;7.830;2023-02-28T13:26:09;5.40;99.90
1686;DHT22;840;47.980;7.830;2023-02-28T13:29:20;5.50;99.90
1686;DHT22;840;47.980;7.830;2023-02-28T13:35:35;5.80;99.90
1686;DHT22;840;47.980;7.830;2023-02-28T13:38:25;6.00;99.90
1686;DHT22;840;47.980;7.830;2023-02-28T13:44:02;5.60;99.90
1686;DHT22;840;47.980;7.830;2023-02-28T13:46:31;5.60;99.90
1686;DHT22;840;47.980;7.830;2023-02-28T13:49:23;5.60;99.90
1686;DHT22;840;47.980;7.830;2023-02-28T13:51:52;5.80;99.90
1686;DHT22;840;47.980;7.830;2023-02-28T13:54:27;5.80;99.90
1686;DHT22;840;47.980;7.830;2023-02-28T13:57:06;5.80;99.90
1686;DHT22;840;47.980;7.830;2023-02-28T13:59:43;5.80;99.90
1686;DHT22;840;47.980;7.830;2023-02-28T14:02:43;5.90;99.90
1686;DHT22;840;47.980;7.830;2023-02-28T14:05:15;5.90;99.90
1686;DHT22;840;47.980;7.830;2023-02-28T14:07:45;5.90;99.90
1686;DHT22;840;47.980;7.830;2023-02-28T14:10:23;5.80;99.90
1686;DHT22;840;47.980;7.830;2023-02-28T14:13:00;5.80;99.90
1686;DHT22;840;47.980;7.830;2023-02-28T14:15:47;5.90;99.90
1686;DHT22;840;47.980;7.830;2023-02-28T14:18:25;6.00;99.90
1686;DHT22;840;47.980;7.830;2023-02-28T14:20:56;6.00;99.90
1686;DHT22;840;47.980;7.830;2023-02-28T14:23:45;6.00;99.90
1686;DHT22;840;47.980;7.830;2023-02-28T14:26:26;6.20;99.90
1686;DHT22;840;47.980;7.830;2023-02-28T14:29:10;6.50;99.90
1686;DHT22;840;47.980;7.830;2023-02-28T14:31:44;6.50;99.20
1686;DHT22;840;47.980;7.830;2023-02-28T14:34:25;6.50;99.30
1686;DHT22;840;47.980;7.830;2023-02-28T14:36:58;6.40;99.00
1686;DHT22;840;47.980;7.830;2023-02-28T14:39:28;6.40;99.50
1686;DHT22;840;47.980;7.830;2023-02-28T14:41:56;6.40;99.10
1686;DHT22;840;47.980;7.830;2023-02-28T14:44:28;6.30;99.10
1686;DHT22;840;47.980;7.830;2023-02-28T14:46:59;6.20;99.70
1686;DHT22;840;47.980;7.830;2023-02-28T14:49:31;6.20;99.40
1686;DHT22;840;47.980;7.830;2023-02-28T14:52:05;6.10;99.50
1686;DHT22;840;47.980;7.830;2023-02-28T14:54:40;6.00;99.40
1686;DHT22;840;47.980;7.830;2023-02-28T14:57:21;5.90;99.60
1686;DHT22;840;47.980;7.830;2023-02-28T14:59:57;5.90;99.90
1686;DHT22;840;47.980;7.830;2023-02-28T15:02:29;5.90;99.60
1686;DHT22;840;47.980;7.830;2023-02-28T15:04:58;5.90;99.90
1686;DHT22;840;47.980;7.830;2023-02-28T15:07:25;6.10;99.90
1686;DHT22;840;47.980;7.830;2023-02-28T15:10:16;6.20;99.90
1686;DHT22;840;47.980;7.830;2023-02-28T15:12:49;6.30;99.70
1686;DHT22;840;47.980;7.830;2023-02-28T15:15:18;6.40;99.60
1686;DHT22;840;47.980;7.830;2023-02-28T15:17:51;6.50;99.20
1686;DHT22;840;47.980;7.830;2023-02-28T15:20:18;6.60;99.10
1686;DHT22;840;47.980;7.830;2023-02-28T15:22:47;6.70;98.70
1686;DHT22;840;47.980;7.830;2023-02-28T15:25:19;6.70;98.80
1686;DHT22;840;47.980;7.830;2023-02-28T15:27:50;6.60;98.40
1686;DHT22;840;47.980;7.830;2023-02-28T15:30:19;6.50;98.60
1686;DHT22;840;47.980;7.830;2023-02-28T15:35:42;6.40;98.60
1686;DHT22;840;47.980;7.830;2023-02-28T15:38:16;6.40;98.90
1686;DHT22;840;47.980;7.830;2023-02-28T15:40:44;6.40;98.20
1686;DHT22;840;47.980;7.830;2023-02-28T15:43:16;6.40;98.60
1686;DHT22;840;47.980;7.830;2023-02-28T15:45:46;6.50;98.30
1686;DHT22;840;47.980;7.830;2023-02-28T15:48:18;6.50;98.20
1686;DHT22;840;47.980;7.830;2023-02-28T15:50:50;6.40;98.40
1686;DHT22;840;47.980;7.830;2023-02-28T15:53:22;6.30;98.10
1686;DHT22;840;47.980;7.830;2023-02-28T15:56:00;6.10;98.30
1686;DHT22;840;47.980;7.830;2023-02-28T15:58:28;5.90;98.70
1686;DHT22;840;47.980;7.830;2023-02-28T16:01:06;5.80;99.00
1686;DHT22;840;47.980;7.830;2023-02-28T16:03:39;5.80;99.50
1686;DHT22;840;47.980;7.830;2023-02-28T16:06:37;5.80;99.30
1686;DHT22;840;47.980;7.830;2023-02-28T16:09:06;5.70;99.20
1686;DHT22;840;47.980;7.830;2023-02-28T16:11:38;5.60;99.30
1686;DHT22;840;47.980;7.830;2023-02-28T16:14:07;5.50;99.50
1686;DHT22;840;47.980;7.830;2023-02-28T16:16:42;5.40;99.60
1686;DHT22;840;47.980;7.830;2023-02-28T16:19:09;5.30;99.80
1686;DHT22;840;47.980;7.830;2023-02-28T16:21:38;5.20;99.90
1686;DHT22;840;47.980;7.830;2023-02-28T16:24:05;5.20;99.90
1686;DHT22;840;47.980;7.830;2023-02-28T16:26:33;5.20;99.90
1686;DHT22;840;47.980;7.830;2023-02-28T16:29:03;5.20;99.90
1686;DHT22;840;47.980;7.830;2023-02-28T16:31:31;5.20;99.90
1686;DHT22;840;47.980;7.830;2023-02-28T16:33:58;5.20;99.90
1686;DHT22;840;47.980;7.830;2023-02-28T16:36:25;5.20;99.90
1686;DHT22;840;47.980;7.830;2023-02-28T16:38:54;5.20;99.90
1686;DHT22;840;47.980;7.830;2023-02-28T16:41:23;5.20;99.90
1686;DHT22;840;47.980;7.830;2023-02-28T16:43:52;5.20;99.90
1686;DHT22;840;47.980;7.830;2023-02-28T16:46:32;5.20;99.90
1686;DHT22;840;47.980;7.830;2023-02-28T16:48:59;5.10;99.90
1686;DHT22;840;47.980;7.830;2023-02-28T16:51:26;5.10;99.90
1686;DHT22;840;47.980;7.830;2023-02-28T16:53:55;5.10;99.90
1686;DHT22;840;47.980;7.830;2023-02-28T16:56:24;5.10;99.90
1686;DHT22;840;47.980;7.830;2023-02-28T16:58:55;5.00;99.90
1686;DHT22;840;47.980;7.830;2023-02-28T17:01:23;5.00;99.90
1686;DHT22;840;47.980;7.830;2023-02-28T17:03:52;5.00;99.90
1686;DHT22;840;47.980;7.830;2023-02-28T17:06:24;5.00;99.90
1686;DHT22;840;47.980;7.830;2023-02-28T17:08:55;4.90;99.90
1686;DHT22;840;47.980;7.830;2023-02-28T17:11:23;4.80;99.90
1686;DHT22;840;47.980;7.830;2023-02-28T17:13:51;4.80;99.90
1686;DHT22;840;47.980;7.830;2023-02-28T17:16:23;4.60;99.90
1686;DHT22;840;47.980;7.830;2023-02-28T17:18:53;4.60;99.90
1686;DHT22;840;47.980;7.830;2023-02-28T17:21:21;4.50;99.90
1686;DHT22;840;47.980;7.830;2023-02-28T17:23:48;4.50;99.90
1686;DHT22;840;47.980;7.830;2023-02-28T17:26:18;4.50;99.90
1686;DHT22;840;47.980;7.830;2023-02-28T17:28:47;4.40;99.90
1686;DHT22;840;47.980;7.830;2023-02-28T17:31:14;4.30;99.90